createdAt,value
2023-05-19T00:00:18.051Z,80.14
2023-05-19T00:01:18.066Z,81.16
2023-05-19T00:02:18.051Z,80.14
2023-05-19T00:03:18.167Z,79.22
2023-05-19T00:04:18.003Z,79.63
2023-05-19T00:05:18.027Z,79.63
2023-05-19T00:06:18.117Z,79.32
2023-05-19T00:07:17.993Z,77.68
2023-05-19T00:08:17.970Z,77.68
2023-05-19T00:09:17.966Z,78.81
2023-05-19T00:10:17.950Z,78.09
2023-05-19T00:11:17.966Z,78.70
2023-05-19T00:12:17.913Z,78.87
2023-05-19T00:13:17.943Z,78.25
2023-05-19T00:14:17.897Z,79.38
2023-05-19T00:15:17.955Z,78.16
2023-05-19T00:16:17.936Z,77.33
2023-05-19T00:17:17.896Z,77.54
2023-05-19T00:18:17.851Z,77.74
2023-05-19T00:19:17.959Z,78.46
2023-05-19T00:20:17.826Z,77.44
2023-05-19T00:21:17.861Z,78.05
2023-05-19T00:22:17.892Z,76.82
2023-05-19T00:23:17.842Z,77.17
2023-05-19T00:24:17.811Z,77.78
2023-05-19T00:25:17.820Z,78.33
2023-05-19T00:26:17.795Z,78.94
2023-05-19T00:27:17.802Z,79.36
2023-05-19T00:28:17.749Z,79.22
2023-05-19T00:29:17.775Z,78.91
2023-05-19T00:30:17.735Z,78.39
2023-05-19T00:31:17.915Z,78.50
2023-05-19T00:32:17.816Z,78.09
2023-05-19T00:33:17.711Z,78.39
2023-05-19T00:34:17.684Z,80.14
2023-05-19T00:35:17.719Z,79.52
2023-05-19T00:36:17.663Z,79.97
2023-05-19T00:37:17.677Z,79.46
2023-05-19T00:38:17.657Z,79.77
2023-05-19T00:39:17.692Z,78.74
2023-05-19T00:40:17.631Z,79.91
2023-05-19T00:41:17.673Z,79.19
2023-05-19T00:42:17.608Z,81.04
2023-05-19T00:43:17.633Z,80.52
2023-05-19T00:44:17.574Z,81.04
2023-05-19T00:45:17.596Z,81.34
2023-05-19T00:46:17.624Z,81.45
2023-05-19T00:47:17.594Z,81.45
2023-05-19T00:48:17.546Z,81.86
2023-05-19T00:49:17.568Z,81.65
2023-05-19T00:50:17.527Z,81.14
2023-05-19T00:51:17.528Z,80.93
2023-05-19T00:52:17.511Z,81.04
2023-05-19T00:53:17.525Z,81.45
2023-05-19T00:54:17.494Z,81.59
2023-05-19T00:55:17.496Z,82.31
2023-05-19T00:56:17.514Z,82.31
2023-05-19T00:57:17.736Z,80.77
2023-05-19T00:58:17.517Z,80.52
2023-05-19T00:59:17.454Z,80.63
2023-05-19T01:00:17.415Z,79.94
2023-05-19T01:01:17.604Z,80.25
2023-05-19T01:02:17.405Z,80.46
2023-05-19T01:03:17.564Z,80.80
2023-05-19T01:04:17.369Z,81.21
2023-05-19T01:05:17.366Z,81.42
2023-05-19T01:06:17.378Z,81.79
2023-05-19T01:07:17.343Z,81.48
2023-05-19T01:08:17.378Z,81.04
2023-05-19T01:09:17.350Z,80.73
2023-05-19T01:10:17.345Z,80.63
2023-05-19T01:11:17.317Z,81.69
2023-05-19T01:12:17.326Z,81.93
2023-05-19T01:13:17.279Z,82.04
2023-05-19T01:14:17.365Z,81.11
2023-05-19T01:15:17.253Z,82.24
2023-05-19T01:16:17.309Z,83.48
2023-05-19T01:17:17.264Z,82.86
2023-05-19T01:18:17.253Z,82.55
2023-05-19T01:19:17.252Z,82.14
2023-05-19T01:20:17.254Z,83.06
2023-05-19T01:21:17.207Z,82.65
2023-05-19T01:22:17.218Z,82.65
2023-05-19T01:23:17.173Z,82.34
2023-05-19T01:24:17.197Z,82.14
2023-05-19T01:25:17.172Z,82.14
2023-05-19T01:26:17.187Z,82.24
2023-05-19T01:27:17.130Z,82.24
2023-05-19T01:28:17.146Z,83.31
2023-05-19T01:29:17.111Z,83.51
2023-05-19T01:30:17.152Z,83.20
2023-05-19T01:31:17.102Z,83.72
2023-05-19T01:32:17.106Z,83.62
2023-05-19T01:33:17.072Z,84.34
2023-05-19T01:34:17.094Z,83.83
2023-05-19T01:35:17.081Z,83.20
2023-05-19T01:36:17.069Z,82.28
2023-05-19T01:37:17.047Z,81.76
2023-05-19T01:38:17.046Z,82.18
2023-05-19T01:39:17.018Z,83.37
2023-05-19T01:40:17.033Z,82.96
2023-05-19T01:41:17.025Z,82.34
2023-05-19T01:42:17.013Z,81.32
2023-05-19T01:43:16.973Z,81.93
2023-05-19T01:44:16.988Z,81.73
2023-05-19T01:45:16.956Z,81.93
2023-05-19T01:46:17.072Z,81.93
2023-05-19T01:47:16.961Z,82.14
2023-05-19T01:48:16.950Z,82.65
2023-05-19T01:49:16.923Z,82.69
2023-05-19T01:50:16.930Z,83.11
2023-05-19T01:51:16.890Z,83.55
2023-05-19T01:52:16.919Z,83.65
2023-05-19T01:53:16.905Z,84.42
2023-05-19T01:54:16.877Z,85.65
2023-05-19T01:55:16.854Z,85.79
2023-05-19T01:56:16.858Z,86.41
2023-05-19T01:57:16.831Z,85.44
2023-05-19T01:58:16.840Z,85.34
2023-05-19T01:59:16.849Z,85.59
2023-05-19T02:00:17.201Z,86.61
2023-05-19T02:01:16.805Z,86.35
2023-05-19T02:02:16.796Z,87.07
2023-05-19T02:03:16.785Z,87.17
2023-05-19T02:04:16.804Z,86.76
2023-05-19T02:05:16.761Z,87.27
2023-05-19T02:06:16.761Z,87.07
2023-05-19T02:07:16.719Z,87.59
2023-05-19T02:08:16.743Z,87.38
2023-05-19T02:09:16.717Z,87.48
2023-05-19T02:10:16.718Z,86.87
2023-05-19T02:11:16.696Z,86.10
2023-05-19T02:12:16.697Z,84.77
2023-05-19T02:13:16.669Z,84.77
2023-05-19T02:14:16.680Z,84.05
2023-05-19T02:15:16.651Z,83.84
2023-05-19T02:16:16.735Z,83.84
2023-05-19T02:17:16.639Z,84.08
2023-05-19T02:18:16.639Z,84.77
2023-05-19T02:19:16.634Z,84.14
2023-05-19T02:20:16.615Z,83.98
2023-05-19T02:21:16.576Z,85.17
2023-05-19T02:22:16.610Z,85.17
2023-05-19T02:23:16.566Z,85.17
2023-05-19T02:24:16.571Z,85.17
2023-05-19T02:25:16.553Z,84.62
2023-05-19T02:26:16.544Z,84.21
2023-05-19T02:27:16.517Z,83.80
2023-05-19T02:28:16.537Z,83.28
2023-05-19T02:29:16.535Z,83.63
2023-05-19T02:30:16.503Z,83.59
2023-05-19T02:31:16.469Z,83.28
2023-05-19T02:32:16.611Z,82.97
2023-05-19T02:33:16.455Z,82.87
2023-05-19T02:34:16.462Z,82.87
2023-05-19T02:35:16.443Z,83.53
2023-05-19T02:36:16.438Z,83.84
2023-05-19T02:37:16.434Z,83.63
2023-05-19T02:38:16.414Z,83.53
2023-05-19T02:39:16.404Z,83.32
2023-05-19T02:40:16.405Z,84.59
2023-05-19T02:41:16.382Z,84.91
2023-05-19T02:42:16.387Z,84.91
2023-05-19T02:43:16.344Z,84.91
2023-05-19T02:44:16.354Z,84.49
2023-05-19T02:45:16.319Z,84.80
2023-05-19T02:46:16.372Z,85.22
2023-05-19T02:47:16.343Z,85.31
2023-05-19T02:48:16.354Z,85.42
2023-05-19T02:49:16.288Z,85.83
2023-05-19T02:50:16.297Z,85.63
2023-05-19T02:51:16.260Z,86.55
2023-05-19T02:52:16.309Z,86.60
2023-05-19T02:53:16.277Z,87.66
2023-05-19T02:54:16.274Z,87.26
2023-05-19T02:55:16.218Z,86.49
2023-05-19T02:56:16.250Z,85.87
2023-05-19T02:57:16.217Z,84.94
2023-05-19T02:58:16.214Z,85.94
2023-05-19T02:59:16.194Z,85.87
2023-05-19T03:00:16.220Z,85.97
2023-05-19T03:01:16.219Z,86.84
2023-05-19T03:02:16.235Z,88.39
2023-05-19T03:03:16.281Z,89.87
2023-05-19T03:04:16.145Z,89.98
2023-05-19T03:05:16.140Z,89.36
2023-05-19T03:06:16.150Z,89.36
2023-05-19T03:07:16.109Z,88.74
2023-05-19T03:08:16.115Z,88.43
2023-05-19T03:09:16.079Z,88.32
2023-05-19T03:10:16.097Z,88.32
2023-05-19T03:11:16.065Z,88.12
2023-05-19T03:12:16.071Z,88.12
2023-05-19T03:13:16.034Z,88.02
2023-05-19T03:14:16.042Z,88.02
2023-05-19T03:15:16.034Z,87.92
2023-05-19T03:16:16.057Z,88.26
2023-05-19T03:17:16.073Z,89.19
2023-05-19T03:18:16.044Z,89.92
2023-05-19T03:19:16.000Z,90.02
2023-05-19T03:20:16.002Z,89.92
2023-05-19T03:21:15.959Z,88.89
2023-05-19T03:22:16.020Z,88.53
2023-05-19T03:23:15.955Z,88.43
2023-05-19T03:24:15.946Z,88.84
2023-05-19T03:25:15.933Z,88.53
2023-05-19T03:26:15.924Z,86.88
2023-05-19T03:27:15.890Z,87.66
2023-05-19T03:28:15.922Z,86.53
2023-05-19T03:29:15.905Z,85.39
2023-05-19T03:30:15.977Z,85.95
2023-05-19T03:31:15.852Z,87.26
2023-05-19T03:32:15.893Z,85.71
2023-05-19T03:33:16.040Z,85.87
2023-05-19T03:34:15.842Z,85.67
2023-05-19T03:35:15.852Z,85.57
2023-05-19T03:36:15.820Z,86.12
2023-05-19T03:37:15.799Z,86.63
2023-05-19T03:38:15.805Z,86.32
2023-05-19T03:39:15.765Z,86.63
2023-05-19T03:40:15.945Z,88.22
2023-05-19T03:41:16.284Z,88.98
2023-05-19T03:42:15.777Z,90.68
2023-05-19T03:43:15.745Z,90.99
2023-05-19T03:44:15.760Z,91.34
2023-05-19T03:45:15.710Z,92.07
2023-05-19T03:46:15.726Z,92.17
2023-05-19T03:47:15.712Z,91.09
2023-05-19T03:48:15.696Z,90.47
2023-05-19T03:49:15.672Z,90.02
2023-05-19T03:50:15.731Z,88.89
2023-05-19T03:51:15.643Z,88.68
2023-05-19T03:52:15.673Z,87.54
2023-05-19T03:53:15.666Z,86.92
2023-05-19T03:54:15.672Z,89.15
2023-05-19T03:55:15.608Z,88.12
2023-05-19T03:56:15.632Z,87.81
2023-05-19T03:57:15.605Z,87.92
2023-05-19T03:58:15.592Z,88.02
2023-05-19T03:59:15.638Z,88.12
2023-05-19T04:00:15.558Z,87.35
2023-05-19T04:01:15.580Z,87.15
2023-05-19T04:02:16.622Z,86.32
2023-05-19T04:03:15.577Z,86.84
2023-05-19T04:04:15.568Z,86.60
2023-05-19T04:05:15.562Z,86.39
2023-05-19T04:06:15.500Z,86.94
2023-05-19T04:07:15.497Z,86.53
2023-05-19T04:08:15.463Z,86.49
2023-05-19T04:09:15.478Z,86.18
2023-05-19T04:10:15.453Z,86.18
2023-05-19T04:11:15.474Z,86.90
2023-05-19T04:12:15.444Z,86.39
2023-05-19T04:13:15.438Z,86.29
2023-05-19T04:14:15.414Z,85.97
2023-05-19T04:15:15.441Z,87.32
2023-05-19T04:16:15.419Z,87.46
2023-05-19T04:17:15.419Z,87.87
2023-05-19T04:18:15.418Z,88.95
2023-05-19T04:19:15.422Z,89.67
2023-05-19T04:20:15.366Z,89.46
2023-05-19T04:21:15.364Z,89.05
2023-05-19T04:22:15.343Z,89.56
2023-05-19T04:23:15.385Z,89.56
2023-05-19T04:24:15.304Z,87.40
2023-05-19T04:25:15.320Z,87.40
2023-05-19T04:26:15.289Z,87.60
2023-05-19T04:27:15.305Z,89.01
2023-05-19T04:28:15.275Z,90.35
2023-05-19T04:29:15.293Z,89.22
2023-05-19T04:30:16.714Z,88.86
2023-05-19T04:31:15.361Z,88.96
2023-05-19T04:32:15.244Z,89.17
2023-05-19T04:33:15.234Z,89.07
2023-05-19T04:34:15.192Z,88.76
2023-05-19T04:35:15.246Z,89.38
2023-05-19T04:36:15.243Z,90.72
2023-05-19T04:37:15.195Z,90.51
2023-05-19T04:38:15.160Z,90.41
2023-05-19T04:39:15.179Z,89.17
2023-05-19T04:40:15.144Z,89.79
2023-05-19T04:41:15.246Z,90.99
2023-05-19T04:42:15.111Z,91.03
2023-05-19T04:43:15.133Z,89.58
2023-05-19T04:44:15.103Z,89.38
2023-05-19T04:45:15.117Z,88.76
2023-05-19T04:46:15.150Z,88.35
2023-05-19T04:47:15.110Z,87.83
2023-05-19T04:48:15.061Z,89.07
2023-05-19T04:49:15.079Z,89.07
2023-05-19T04:50:15.043Z,89.07
2023-05-19T04:51:15.055Z,89.48
2023-05-19T04:52:15.008Z,89.58
2023-05-19T04:53:15.053Z,89.58
2023-05-19T04:54:15.016Z,91.30
2023-05-19T04:55:15.028Z,91.30
2023-05-19T04:56:14.997Z,89.71
2023-05-19T04:57:14.982Z,89.09
2023-05-19T04:58:14.946Z,88.99
2023-05-19T04:59:15.004Z,88.37
2023-05-19T05:00:14.991Z,90.33
2023-05-19T05:01:14.956Z,89.56
2023-05-19T05:02:14.996Z,88.84
2023-05-19T05:03:15.060Z,88.08
2023-05-19T05:04:14.937Z,88.18
2023-05-19T05:05:14.926Z,87.46
2023-05-19T05:06:14.857Z,86.85
2023-05-19T05:07:14.899Z,88.96
2023-05-19T05:08:14.872Z,87.32
2023-05-19T05:09:14.862Z,86.74
2023-05-19T05:10:14.835Z,86.70
2023-05-19T05:11:14.850Z,86.50
2023-05-19T05:12:14.798Z,85.78
2023-05-19T05:13:14.809Z,86.19
2023-05-19T05:14:14.780Z,86.80
2023-05-19T05:15:14.825Z,87.07
2023-05-19T05:16:14.824Z,85.08
2023-05-19T05:17:14.792Z,84.26
2023-05-19T05:18:14.730Z,83.50
2023-05-19T05:19:14.834Z,82.23
2023-05-19T05:20:14.723Z,81.37
2023-05-19T05:21:14.709Z,80.82
2023-05-19T05:22:14.720Z,79.86
2023-05-19T05:23:14.744Z,78.02
2023-05-19T05:24:14.706Z,78.08
2023-05-19T05:25:14.660Z,80.67
2023-05-19T05:26:14.675Z,77.46
2023-05-19T05:27:14.644Z,78.92
2023-05-19T05:28:14.665Z,74.52
2023-05-19T05:29:14.636Z,74.59
2023-05-19T05:30:14.637Z,76.03
2023-05-19T05:31:14.605Z,73.64
2023-05-19T05:32:14.650Z,71.67
2023-05-19T05:33:14.738Z,72.75
2023-05-19T05:34:14.591Z,71.43
2023-05-19T05:35:14.577Z,71.19
2023-05-19T05:36:14.581Z,69.02
2023-05-19T05:37:15.304Z,70.21
2023-05-19T05:38:14.543Z,67.63
2023-05-19T05:39:14.523Z,67.69
2023-05-19T05:40:14.548Z,68.31
2023-05-19T05:41:14.523Z,67.80
2023-05-19T05:42:14.509Z,66.17
2023-05-19T05:43:14.475Z,65.36
2023-05-19T05:44:14.519Z,68.21
2023-05-19T05:45:14.451Z,65.66
2023-05-19T05:46:14.498Z,67.39
2023-05-19T05:47:14.455Z,64.54
2023-05-19T05:48:14.521Z,64.31
2023-05-19T05:49:14.415Z,67.97
2023-05-19T05:50:14.415Z,64.75
2023-05-19T05:51:14.398Z,63.93
2023-05-19T05:52:14.400Z,65.56
2023-05-19T05:53:14.392Z,65.25
2023-05-19T05:54:14.382Z,64.75
2023-05-19T05:55:14.347Z,67.08
2023-05-19T05:56:14.366Z,65.66
2023-05-19T05:57:14.328Z,65.16
2023-05-19T05:58:14.350Z,64.03
2023-05-19T05:59:14.328Z,69.63
2023-05-19T06:00:14.316Z,65.56
2023-05-19T06:01:14.304Z,68.01
2023-05-19T06:02:14.394Z,69.70
2023-05-19T06:03:14.385Z,64.79
2023-05-19T06:04:14.285Z,68.52
2023-05-19T06:05:14.343Z,69.74
2023-05-19T06:06:14.268Z,67.91
2023-05-19T06:07:14.260Z,69.84
2023-05-19T06:08:14.258Z,62.59
2023-05-19T06:09:14.199Z,62.59
2023-05-19T06:10:14.208Z,62.08
2023-05-19T06:11:14.227Z,63.51
2023-05-19T06:12:14.202Z,65.88
2023-05-19T06:13:14.167Z,65.88
2023-05-19T06:14:14.195Z,62.82
2023-05-19T06:15:14.152Z,63.94
2023-05-19T06:16:14.186Z,66.08
2023-05-19T06:17:14.143Z,68.11
2023-05-19T06:18:14.175Z,64.89
2023-05-19T06:19:14.140Z,68.96
2023-05-19T06:20:14.115Z,69.90
2023-05-19T06:21:14.070Z,68.38
2023-05-19T06:22:14.079Z,68.31
2023-05-19T06:23:14.081Z,69.53
2023-05-19T06:24:14.072Z,70.04
2023-05-19T06:25:14.044Z,66.78
2023-05-19T06:26:14.065Z,69.23
2023-05-19T06:27:14.016Z,68.71
2023-05-19T06:28:14.028Z,66.85
2023-05-19T06:29:14.012Z,65.94
2023-05-19T06:30:14.041Z,68.44
2023-05-19T06:31:14.022Z,69.57
2023-05-19T06:32:13.985Z,65.30
2023-05-19T06:33:13.965Z,64.58
2023-05-19T06:34:13.960Z,67.02
2023-05-19T06:35:13.939Z,71.19
2023-05-19T06:36:13.946Z,64.15
2023-05-19T06:37:13.904Z,66.58
2023-05-19T06:38:13.930Z,66.46
2023-05-19T06:39:13.897Z,69.67
2023-05-19T06:40:13.943Z,63.14
2023-05-19T06:41:13.892Z,66.56
2023-05-19T06:42:13.880Z,62.20
2023-05-19T06:43:13.842Z,67.38
2023-05-19T06:44:13.871Z,63.49
2023-05-19T06:45:13.830Z,65.48
2023-05-19T06:46:13.868Z,61.74
2023-05-19T06:47:13.931Z,65.86
2023-05-19T06:48:13.862Z,63.43
2023-05-19T06:49:13.781Z,64.85
2023-05-19T06:50:13.820Z,67.18
2023-05-19T06:51:13.775Z,63.09
2023-05-19T06:52:13.774Z,63.70
2023-05-19T06:53:13.767Z,66.74
2023-05-19T06:54:13.755Z,62.49
2023-05-19T06:55:13.746Z,58.74
2023-05-19T06:56:13.742Z,64.72
2023-05-19T06:57:13.692Z,65.29
2023-05-19T06:58:13.718Z,62.38
2023-05-19T06:59:13.691Z,59.32
2023-05-19T07:00:16.097Z,60.03
2023-05-19T07:01:13.700Z,59.52
2023-05-19T07:02:13.738Z,60.20
2023-05-19T07:03:13.671Z,61.92
2023-05-19T07:04:13.751Z,62.84
2023-05-19T07:05:13.786Z,60.30
2023-05-19T07:06:13.618Z,62.53
2023-05-19T07:07:13.595Z,62.43
2023-05-19T07:08:13.598Z,67.99
2023-05-19T07:09:13.586Z,59.16
2023-05-19T07:10:13.581Z,58.15
2023-05-19T07:11:13.564Z,59.34
2023-05-19T07:12:13.555Z,59.34
2023-05-19T07:13:13.525Z,63.18
2023-05-19T07:14:13.565Z,56.91
2023-05-19T07:15:13.509Z,56.51
2023-05-19T07:16:13.578Z,57.21
2023-05-19T07:17:13.577Z,60.45
2023-05-19T07:18:13.560Z,61.03
2023-05-19T07:19:13.535Z,58.80
2023-05-19T07:20:13.478Z,61.33
2023-05-19T07:21:13.478Z,60.42
2023-05-19T07:22:13.450Z,61.51
2023-05-19T07:23:13.910Z,57.87
2023-05-19T07:24:13.450Z,55.32
2023-05-19T07:25:13.413Z,58.25
2023-05-19T07:26:13.403Z,55.92
2023-05-19T07:27:13.375Z,56.83
2023-05-19T07:28:13.381Z,60.74
2023-05-19T07:29:13.370Z,57.51
2023-05-19T07:30:13.366Z,56.57
2023-05-19T07:31:13.336Z,53.14
2023-05-19T07:32:13.478Z,56.10
2023-05-19T07:33:13.396Z,56.10
2023-05-19T07:34:13.321Z,59.80
2023-05-19T07:35:13.537Z,57.08
2023-05-19T07:36:13.315Z,55.87
2023-05-19T07:37:13.278Z,59.17
2023-05-19T07:38:13.293Z,55.34
2023-05-19T07:39:13.306Z,61.96
2023-05-19T07:40:13.264Z,55.71
2023-05-19T07:41:13.235Z,56.02
2023-05-19T07:42:13.257Z,54.21
2023-05-19T07:43:13.200Z,60.35
2023-05-19T07:44:13.233Z,57.63
2023-05-19T07:45:13.172Z,56.12
2023-05-19T07:46:13.292Z,52.29
2023-05-19T07:47:13.179Z,54.58
2023-05-19T07:48:13.211Z,59.22
2023-05-19T07:49:13.159Z,51.26
2023-05-19T07:50:13.159Z,54.46
2023-05-19T07:51:13.119Z,57.17
2023-05-19T07:52:13.153Z,51.93
2023-05-19T07:53:13.113Z,58.86
2023-05-19T07:54:13.109Z,55.74
2023-05-19T07:55:13.080Z,50.60
2023-05-19T07:56:13.084Z,52.22
2023-05-19T07:57:13.050Z,52.42
2023-05-19T07:58:13.054Z,50.20
2023-05-19T07:59:13.072Z,54.13
2023-05-19T08:00:13.072Z,55.81
2023-05-19T08:01:13.027Z,58.02
2023-05-19T08:02:13.154Z,58.53
2023-05-19T08:03:13.218Z,51.68
2023-05-19T08:04:13.346Z,60.94
2023-05-19T08:05:12.992Z,59.70
2023-05-19T08:06:12.976Z,57.87
2023-05-19T08:07:12.968Z,51.24
2023-05-19T08:08:12.953Z,54.88
2023-05-19T08:09:12.934Z,52.97
2023-05-19T08:10:12.939Z,53.47
2023-05-19T08:11:12.937Z,50.96
2023-05-19T08:12:12.923Z,49.93
2023-05-19T08:13:12.886Z,51.04
2023-05-19T08:14:12.906Z,54.96
2023-05-19T08:15:12.875Z,50.13
2023-05-19T08:16:12.933Z,52.17
2023-05-19T08:17:12.879Z,50.48
2023-05-19T08:18:12.933Z,51.29
2023-05-19T08:19:12.892Z,53.20
2023-05-19T08:20:12.852Z,53.67
2023-05-19T08:21:12.805Z,55.79
2023-05-19T08:22:12.827Z,53.05
2023-05-19T08:23:12.829Z,52.44
2023-05-19T08:24:12.794Z,50.15
2023-05-19T08:25:12.759Z,50.66
2023-05-19T08:26:12.774Z,56.46
2023-05-19T08:27:12.746Z,55.05
2023-05-19T08:28:12.759Z,54.33
2023-05-19T08:29:12.743Z,51.19
2023-05-19T08:30:12.745Z,48.98
2023-05-19T08:31:12.799Z,48.28
2023-05-19T08:32:13.462Z,52.39
2023-05-19T08:33:12.737Z,50.31
2023-05-19T08:34:12.696Z,54.90
2023-05-19T08:35:12.665Z,47.60
2023-05-19T08:36:12.690Z,54.65
2023-05-19T08:37:12.644Z,48.98
2023-05-19T08:38:12.650Z,57.68
2023-05-19T08:39:12.618Z,52.75
2023-05-19T08:40:12.643Z,51.92
2023-05-19T08:41:12.626Z,48.58
2023-05-19T08:42:12.604Z,49.29
2023-05-19T08:43:12.583Z,48.38
2023-05-19T08:44:12.604Z,47.66
2023-05-19T08:45:12.560Z,47.24
2023-05-19T08:46:12.621Z,45.64
2023-05-19T08:47:12.837Z,43.46
2023-05-19T08:48:12.583Z,48.01
2023-05-19T08:49:12.509Z,49.76
2023-05-19T08:50:12.527Z,49.63
2023-05-19T08:51:12.519Z,53.80
2023-05-19T08:52:12.502Z,45.96
2023-05-19T08:53:24.696Z,46.36
2023-05-19T08:54:12.564Z,43.05
2023-05-19T08:55:12.459Z,42.49
2023-05-19T08:56:12.461Z,49.18
2023-05-19T08:57:12.432Z,56.35
2023-05-19T08:58:12.451Z,43.54
2023-05-19T08:59:12.435Z,43.34
2023-05-19T09:00:12.410Z,46.33
2023-05-19T09:01:12.433Z,55.52
2023-05-19T09:02:12.405Z,46.36
2023-05-19T09:04:12.424Z,41.80
2023-05-19T09:05:12.386Z,45.47
2023-05-19T09:06:12.364Z,42.43
2023-05-19T09:07:12.328Z,45.40
2023-05-19T09:08:12.332Z,42.02
2023-05-19T09:09:12.312Z,44.09
2023-05-19T09:10:12.332Z,40.48
2023-05-19T09:11:12.343Z,37.67
2023-05-19T09:12:12.303Z,37.67
2023-05-19T09:13:12.285Z,39.86
2023-05-19T09:14:12.277Z,40.95
2023-05-19T09:15:12.238Z,41.25
2023-05-19T09:16:12.358Z,41.55
2023-05-19T09:17:12.288Z,40.14
2023-05-19T09:18:12.309Z,39.12
2023-05-19T09:19:12.248Z,38.81
2023-05-19T09:20:12.224Z,37.32
2023-05-19T09:21:12.172Z,37.20
2023-05-19T09:22:12.193Z,36.02
2023-05-19T09:23:12.185Z,46.09
2023-05-19T09:24:12.170Z,42.83
2023-05-19T09:25:12.138Z,44.01
2023-05-19T09:26:12.157Z,41.00
2023-05-19T09:27:12.118Z,37.10
2023-05-19T09:28:12.134Z,44.84
2023-05-19T09:29:12.135Z,38.56
2023-05-19T09:30:12.135Z,41.34
2023-05-19T09:31:12.085Z,36.47
2023-05-19T09:32:12.128Z,35.08
2023-05-19T09:33:12.124Z,40.03
2023-05-19T09:34:12.068Z,33.76
2023-05-19T09:35:12.070Z,38.24
2023-05-19T09:36:12.053Z,42.39
2023-05-19T09:37:12.042Z,35.64
2023-05-19T09:38:12.025Z,33.27
2023-05-19T09:39:12.020Z,40.64
2023-05-19T09:40:13.088Z,40.62
2023-05-19T09:41:12.013Z,36.73
2023-05-19T09:42:11.967Z,36.33
2023-05-19T09:43:11.982Z,35.83
2023-05-19T09:44:11.946Z,34.46
2023-05-19T09:45:11.970Z,37.84
2023-05-19T09:46:13.723Z,36.47
2023-05-19T09:47:11.951Z,38.54
2023-05-19T09:48:11.916Z,38.93
2023-05-19T09:49:11.916Z,33.50
2023-05-19T09:50:11.885Z,35.03
2023-05-19T09:51:11.922Z,42.15
2023-05-19T09:52:12.727Z,38.57
2023-05-19T09:53:11.899Z,33.72
2023-05-19T09:54:11.849Z,40.12
2023-05-19T09:55:11.904Z,35.24
2023-05-19T09:56:11.820Z,38.49
2023-05-19T09:57:11.842Z,37.28
2023-05-19T09:58:12.708Z,33.90
2023-05-19T09:59:11.838Z,34.78
2023-05-19T10:00:11.797Z,34.27
2023-05-19T10:01:11.837Z,37.15
2023-05-19T10:02:11.759Z,35.32
2023-05-19T10:03:11.825Z,33.75
2023-05-19T10:04:11.742Z,35.24
2023-05-19T10:05:11.824Z,33.78
2023-05-19T10:06:11.732Z,34.28
2023-05-19T10:07:11.744Z,32.97
2023-05-19T10:08:11.710Z,36.25
2023-05-19T10:09:11.716Z,33.47
2023-05-19T10:10:11.686Z,34.17
2023-05-19T10:11:11.714Z,37.72
2023-05-19T10:12:11.665Z,33.45
2023-05-19T10:13:11.674Z,37.92
2023-05-19T10:14:11.718Z,36.33
2023-05-19T10:15:11.838Z,38.58
2023-05-19T10:16:11.680Z,39.49
2023-05-19T10:17:11.657Z,34.00
2023-05-19T10:18:11.629Z,35.61
2023-05-19T10:19:11.667Z,35.41
2023-05-19T10:20:11.586Z,37.26
2023-05-19T10:21:11.619Z,35.36
2023-05-19T10:22:11.584Z,34.74
2023-05-19T10:23:11.589Z,39.37
2023-05-19T10:24:13.316Z,30.94
2023-05-19T10:25:11.577Z,31.84
2023-05-19T10:26:11.553Z,33.50
2023-05-19T10:27:11.535Z,37.05
2023-05-19T10:28:11.516Z,32.12
2023-05-19T10:29:11.714Z,39.77
2023-05-19T10:30:12.771Z,33.62
2023-05-19T10:31:11.500Z,41.69
2023-05-19T10:32:11.686Z,39.25
2023-05-19T10:33:11.523Z,33.80
2023-05-19T10:34:11.442Z,38.04
2023-05-19T10:35:11.488Z,37.06
2023-05-19T10:36:11.438Z,32.28
2023-05-19T10:37:11.447Z,35.04
2023-05-19T10:38:11.412Z,35.03
2023-05-19T10:39:11.414Z,31.24
2023-05-19T10:40:11.390Z,34.10
2023-05-19T10:41:11.427Z,30.74
2023-05-19T10:42:11.384Z,35.19
2023-05-19T10:43:11.413Z,37.05
2023-05-19T10:44:11.341Z,35.85
2023-05-19T10:45:11.399Z,41.95
2023-05-19T10:46:11.336Z,35.12
2023-05-19T10:47:12.794Z,34.64
2023-05-19T10:48:11.365Z,36.35
2023-05-19T10:49:11.346Z,31.41
2023-05-19T10:50:11.275Z,36.94
2023-05-19T10:51:11.323Z,37.53
2023-05-19T10:52:11.272Z,36.05
2023-05-19T10:53:11.299Z,42.96
2023-05-19T10:54:12.271Z,36.23
2023-05-19T10:55:11.260Z,33.54
2023-05-19T10:56:11.215Z,30.76
2023-05-19T10:57:11.236Z,27.91
2023-05-19T10:58:11.197Z,29.43
2023-05-19T10:59:11.227Z,38.94
2023-05-19T11:00:11.181Z,37.04
2023-05-19T11:01:11.229Z,34.95
2023-05-19T11:02:11.202Z,33.37
2023-05-19T11:03:11.264Z,34.76
2023-05-19T11:04:11.401Z,33.59
2023-05-19T11:05:11.206Z,33.29
2023-05-19T11:06:11.125Z,33.07
2023-05-19T11:07:11.130Z,32.00
2023-05-19T11:08:11.096Z,31.74
2023-05-19T11:09:11.122Z,34.71
2023-05-19T11:10:11.083Z,34.25
2023-05-19T11:11:11.120Z,31.50
2023-05-19T11:12:11.057Z,35.46
2023-05-19T11:13:11.071Z,31.00
2023-05-19T11:14:11.091Z,37.99
2023-05-19T11:15:11.075Z,35.79
2023-05-19T11:16:11.066Z,38.75
2023-05-19T11:17:11.365Z,35.47
2023-05-19T11:18:11.016Z,35.74
2023-05-19T11:19:11.045Z,42.27
2023-05-19T11:20:10.987Z,44.93
2023-05-19T11:21:11.978Z,34.91
2023-05-19T11:22:10.961Z,37.87
2023-05-19T11:23:11.080Z,37.17
2023-05-19T11:24:10.972Z,32.89
2023-05-19T11:25:10.946Z,37.47
2023-05-19T11:26:10.934Z,36.32
2023-05-19T11:27:10.945Z,35.44
2023-05-19T11:28:10.889Z,35.04
2023-05-19T11:29:10.931Z,39.11
2023-05-19T11:30:10.884Z,34.96
2023-05-19T11:31:11.122Z,35.46
2023-05-19T11:32:11.075Z,35.34
2023-05-19T11:33:11.187Z,34.56
2023-05-19T11:34:10.827Z,36.66
2023-05-19T11:35:10.887Z,38.56
2023-05-19T11:36:10.812Z,39.33
2023-05-19T11:37:10.831Z,33.06
2023-05-19T11:38:10.791Z,35.95
2023-05-19T11:39:10.803Z,39.05
2023-05-19T11:40:10.772Z,41.58
2023-05-19T11:41:10.810Z,38.99
2023-05-19T11:42:10.758Z,34.99
2023-05-19T11:43:10.784Z,33.59
2023-05-19T11:44:10.734Z,34.48
2023-05-19T11:45:10.746Z,34.17
2023-05-19T11:46:10.770Z,32.48
2023-05-19T11:47:10.736Z,34.15
2023-05-19T11:48:10.712Z,33.34
2023-05-19T11:49:10.722Z,31.35
2023-05-19T11:50:10.665Z,36.30
2023-05-19T11:51:10.680Z,35.29
2023-05-19T11:52:10.657Z,36.56
2023-05-19T11:53:10.712Z,34.22
2023-05-19T11:54:10.638Z,36.99
2023-05-19T11:55:10.637Z,34.23
2023-05-19T11:56:10.621Z,41.99
2023-05-19T11:57:10.631Z,37.24
2023-05-19T11:58:10.593Z,34.27
2023-05-19T11:59:10.658Z,35.75
2023-05-19T12:00:10.575Z,36.93
2023-05-19T12:01:10.592Z,35.82
2023-05-19T12:02:10.592Z,35.41
2023-05-19T12:03:10.859Z,37.69
2023-05-19T12:04:10.586Z,33.80
2023-05-19T12:05:10.627Z,33.01
2023-05-19T12:06:10.583Z,32.70
2023-05-19T12:07:10.527Z,36.05
2023-05-19T12:08:10.529Z,29.52
2023-05-19T12:09:10.510Z,30.35
2023-05-19T12:10:10.577Z,34.12
2023-05-19T12:11:10.487Z,38.88
2023-05-19T12:12:10.450Z,32.71
2023-05-19T12:13:10.814Z,35.29
2023-05-19T12:14:10.460Z,36.10
2023-05-19T12:15:10.438Z,37.92
2023-05-19T12:16:10.448Z,35.83
2023-05-19T12:17:10.440Z,35.52
2023-05-19T12:18:10.428Z,35.60
2023-05-19T12:19:10.464Z,33.50
2023-05-19T12:20:10.460Z,37.35
2023-05-19T12:21:10.373Z,41.12
2023-05-19T12:22:10.343Z,44.89
2023-05-19T12:23:10.392Z,30.62
2023-05-19T12:24:10.322Z,35.47
2023-05-19T12:25:10.336Z,33.00
2023-05-19T12:26:10.334Z,33.78
2023-05-19T12:27:10.314Z,36.15
2023-05-19T12:28:10.284Z,34.78
2023-05-19T12:29:10.323Z,36.84
2023-05-19T12:30:10.280Z,37.43
2023-05-19T12:31:10.310Z,34.86
2023-05-19T12:32:10.363Z,33.80
2023-05-19T12:33:10.278Z,32.91
2023-05-19T12:34:10.214Z,34.89
2023-05-19T12:35:10.254Z,36.77
2023-05-19T12:36:10.223Z,33.19
2023-05-19T12:37:10.230Z,32.68
2023-05-19T12:38:10.178Z,33.77
2023-05-19T12:39:10.201Z,36.94
2023-05-19T12:40:10.267Z,33.17
2023-05-19T12:41:10.216Z,34.95
2023-05-19T12:42:10.143Z,29.43
2023-05-19T12:43:10.165Z,31.72
2023-05-19T12:44:10.138Z,41.41
2023-05-19T12:45:10.128Z,35.85
2023-05-19T12:46:10.136Z,35.95
2023-05-19T12:47:10.142Z,38.24
2023-05-19T12:48:10.115Z,33.01
2023-05-19T12:49:10.101Z,38.46
2023-05-19T12:50:10.356Z,33.98
2023-05-19T12:51:10.069Z,30.07
2023-05-19T12:52:12.741Z,30.83
2023-05-19T12:53:10.077Z,36.32